createdAt,value
2022-10-10T00:03:38.985Z,12.2
2022-10-10T00:08:39.863Z,12.3
2022-10-10T00:23:41.439Z,11.9
2022-10-10T00:28:42.079Z,12.4
2022-10-10T00:33:42.482Z,12.1
2022-10-10T00:38:43.154Z,11.7
2022-10-10T00:53:45.215Z,11.9
2022-10-10T00:58:45.937Z,11.8
2022-10-10T01:18:48.922Z,11.9
2022-10-10T01:43:52.681Z,11.9
2022-10-10T01:48:53.350Z,12.3
2022-10-10T01:58:53.735Z,13.3
2022-10-10T02:08:54.676Z,11.6
2022-10-10T02:23:54.974Z,11.6
2022-10-10T02:28:55.649Z,11.6
2022-10-10T02:38:57.139Z,11.3
2022-10-10T02:43:57.781Z,11.6
2022-10-10T02:48:58.458Z,11.4
2022-10-10T02:53:59.258Z,11.3
2022-10-10T03:09:01.753Z,11.3
2022-10-10T03:14:02.521Z,11.5
2022-10-10T03:24:03.601Z,11.3
2022-10-10T03:29:04.403Z,11.4
2022-10-10T03:34:05.125Z,11.2
2022-10-10T03:39:05.539Z,11
2022-10-10T03:44:06.141Z,11
2022-10-10T03:49:06.667Z,11
2022-10-10T04:04:08.632Z,10.9
2022-10-10T04:09:09.299Z,10.9
2022-10-10T13:02:50.541Z,22.4
2022-10-10T13:07:51.115Z,22.4
2022-10-10T13:17:52.368Z,22.5
2022-10-10T13:32:53.962Z,22.5
2022-10-10T13:37:54.541Z,22.5
2022-10-10T13:47:54.668Z,23
2022-10-10T13:57:59.555Z,22.9
2022-10-10T14:02:56.560Z,23.1
2022-10-10T14:07:57.275Z,23
2022-10-10T14:12:57.912Z,22.9
2022-10-10T14:17:58.654Z,22.9
2022-10-10T14:22:59.194Z,22.8
2022-10-10T14:27:59.915Z,22.8
2022-10-10T14:33:00.640Z,22.8
2022-10-10T15:03:31.123Z,22.5
2022-10-10T15:08:31.506Z,22.5
2022-10-10T15:18:53.047Z,22.4
2022-10-10T15:23:33.287Z,22.4
2022-10-10T15:28:34.191Z,22.4
2022-10-10T15:33:34.610Z,22.4
2022-10-10T15:38:35.039Z,22.4
2022-10-10T15:43:35.664Z,22.3
2022-10-10T15:53:36.888Z,22.2
2022-10-10T15:58:37.402Z,22.2
2022-10-10T16:03:37.948Z,22.2
2022-10-10T16:08:38.507Z,22.1
2022-10-10T16:13:39.368Z,22.1
2022-10-10T16:18:40.413Z,22
2022-10-10T16:28:40.322Z,21.8
2022-10-10T16:33:40.950Z,21.9
2022-10-10T16:38:41.561Z,21.8
2022-10-10T16:43:42.246Z,21.8
2022-10-10T16:48:42.677Z,21.8
2022-10-10T16:53:43.312Z,21.7
2022-10-10T16:58:43.859Z,21.7
2022-10-10T17:08:45.097Z,21.6
2022-10-10T17:13:45.613Z,21.6
2022-10-10T17:18:46.024Z,21.6
2022-10-10T17:28:47.451Z,21.4
2022-10-10T17:33:52.628Z,21.6
2022-10-10T17:43:49.202Z,21.4
2022-10-10T17:53:50.574Z,21.4
2022-10-10T18:08:52.462Z,21.4
2022-10-10T18:13:53.050Z,21.4
2022-10-10T18:18:53.305Z,21.2
2022-10-10T18:28:54.020Z,21.2
2022-10-10T18:33:54.674Z,19.9
2022-10-10T18:43:54.930Z,19
2022-10-10T18:48:55.616Z,19.4
2022-10-10T19:13:58.490Z,18.9
2022-10-10T19:18:59.211Z,18.4
2022-10-10T19:34:00.904Z,17.8
2022-10-10T19:39:01.475Z,18.7
2022-10-10T19:44:02.215Z,18.3
2022-10-10T19:49:02.700Z,18.1
2022-10-10T19:54:03.391Z,17.2
2022-10-10T20:04:04.511Z,16.9
2022-10-10T20:14:06.154Z,18.8
2022-10-10T20:19:06.405Z,18.9
2022-10-10T20:29:06.326Z,18.1
2022-10-10T20:34:06.730Z,17.3
2022-10-10T20:39:07.521Z,17.6
2022-10-10T20:44:08.434Z,18.8
2022-10-10T20:54:09.123Z,18.5
2022-10-10T20:59:09.676Z,17.3
2022-10-10T21:04:10.388Z,18.8
2022-10-10T21:09:10.543Z,16.6
2022-10-10T21:14:11.160Z,15.9
2022-10-10T21:19:12.322Z,16.1
2022-10-10T21:24:12.895Z,15.3
2022-10-10T21:34:14.297Z,15.8
2022-10-10T21:39:14.896Z,15.9
2022-10-10T21:44:14.303Z,14.7
2022-10-10T21:49:14.948Z,15.3
2022-10-10T21:54:15.553Z,14.8
2022-10-10T22:09:16.323Z,14.2
2022-10-10T22:14:17.070Z,14
2022-10-10T22:19:17.631Z,13.8
2022-10-10T22:24:18.308Z,13.8
2022-10-10T22:29:18.869Z,13.6
2022-10-10T22:39:20.195Z,13.5
2022-10-10T22:44:20.742Z,13.4
2022-10-10T22:49:21.039Z,13.2
2022-10-10T22:59:22.676Z,12.9
2022-10-10T23:04:23.294Z,12.9
2022-10-10T23:09:23.136Z,12.8
2022-10-10T23:14:23.580Z,12.6
2022-10-10T23:19:24.238Z,12.6
2022-10-10T23:24:23.812Z,12.7
2022-10-10T23:29:24.374Z,12.6
2022-10-10T23:34:24.887Z,12.5
2022-10-10T23:39:24.476Z,12.6
2022-10-10T23:44:26.136Z,12.6
2022-10-10T23:49:26.878Z,12.6
2022-10-10T23:54:27.666Z,12.6
2022-10-10T23:59:28.533Z,12.6
